Saturday, November 18, 2017, 9:54 PM EST
Back to Local

KFIT, Fitchburg, Fitchburg Municipal Airport

Location: Leominster, MA, United States Lat: 42.552
Local Time: 9:54 PM EST ( 2:54 GMT) Lon: -71.756
Time Zone: US/Eastern Elev: 347 ft

Show me the last for .
Show Decoded

2017-11-18 21:18 METAR KFIT 190218Z AUTO 00000KT 8SM FEW017 BKN023 OVC032 05/04 A2956 RMK AO2
                 RAE09 P0000 T00500039 =
2017-11-18 20:52 METAR KFIT 190152Z AUTO 00000KT 8SM -RA BKN035 OVC042 05/04 A2958 RMK AO2 SLP020
                 P0003 T00500039 =
2017-11-18 20:34 METAR KFIT 190134Z AUTO 00000KT 5SM -RA BR FEW020 FEW025 OVC039 05/04 A2959 RMK
                 AO2 P0003 T00500039 =
2017-11-18 20:06 METAR KFIT 190106Z AUTO 00000KT 7SM -RA BKN025 OVC036 05/04 A2961 RMK AO2 P0000
                 T00500039 =
2017-11-18 19:52 METAR KFIT 190052Z AUTO 00000KT 7SM -RA SCT025 BKN035 OVC044 05/03 A2961 RMK AO2
                 RAB31 SLP032 P0001 T00500033 =
2017-11-18 18:52 METAR KFIT 182352Z AUTO 00000KT 10SM FEW023 SCT033 OVC050 06/02 A2965 RMK AO2
                 SLP045 60000 T00610017 10078 20061 57020 =
2017-11-18 17:52 METAR KFIT 182252Z AUTO 00000KT 10SM SCT029 BKN035 OVC060 06/01 A2968 RMK AO2
                 SLP053 T00610011 =
2017-11-18 16:52 METAR KFIT 182152Z AUTO 15004KT 10SM BKN060 OVC095 07/01 A2969 RMK AO2 RAB17E51
                 SLP059 P0000 T00670011 =
2017-11-18 15:52 METAR KFIT 182052Z AUTO 14006KT 10SM FEW029 OVC075 07/M01 A2971 RMK AO2 SLP066
                 T00721011 56029 =
2017-11-18 14:52 METAR KFIT 181952Z AUTO 13004KT 10SM OVC110 07/M03 A2973 RMK AO2 SLP071
                 T00721033 =
2017-11-18 13:52 METAR KFIT 181852Z AUTO 14005KT 10SM CLR 07/M06 A2977 RMK AO2 SLP084 T00721056 =
2017-11-18 12:52 METAR KFIT 181752Z AUTO 17004KT 10SM BKN110 07/M07 A2980 RMK AO2 SLP096
                 T00721072 10072 21033 58035 =
2017-11-18 11:52 METAR KFIT 181652Z AUTO VRB04KT 10SM CLR 07/M09 A2984 RMK AO2 SLP107 T00721094 =
2017-11-18 10:52 METAR KFIT 181552Z AUTO 18006KT 10SM CLR 06/M08 A2988 RMK AO2 SLP123 T00561078 =
2017-11-18 09:52 METAR KFIT 181452Z AUTO 16004KT 10SM CLR 03/M08 A2991 RMK AO2 SLP131 T00281078
                 58024 =
2017-11-18 08:52 METAR KFIT 181352Z AUTO 12003KT 10SM CLR 02/M07 A2994 RMK AO2 SLP141 T00171067 =
2017-11-18 07:52 METAR KFIT 181252Z AUTO 35003KT 10SM CLR 01/M07 A2995 RMK AO2 SLP147 T00111072 =
2017-11-18 06:52 METAR KFIT 181152Z AUTO 00000KT 10SM CLR M02/M08 A2998 RMK AO2 SLP156 T10221078
                 10000 21039 53006 =
2017-11-18 05:52 METAR KFIT 181052Z AUTO 34003KT 10SM CLR M02/M09 A2996 RMK AO2 SLP150 T10171089
                 =
2017-11-18 04:52 METAR KFIT 180952Z AUTO 34004KT 10SM CLR M01/M09 A2996 RMK AO2 SLP149 T10111094
                 =
2017-11-18 03:52 METAR KFIT 180852Z AUTO 34005KT 10SM CLR M02/M08 A2996 RMK AO2 SLP149 T10221083
                 57009 =
2017-11-18 02:52 METAR KFIT 180752Z AUTO 02003KT 10SM CLR M03/M07 A2996 RMK AO2 SLP150 T10331072
                 =
2017-11-18 01:52 METAR KFIT 180652Z AUTO 00000KT 10SM CLR M03/M08 A2998 RMK AO2 SLP157 T10281078
                 =
2017-11-18 00:52 METAR KFIT 180552Z AUTO 01003KT 10SM CLR M01/M09 A2999 RMK AO2 SLP158 T10061089
                 10022 21039 56001 =
2017-11-17 23:52 METAR KFIT 180452Z AUTO 31005KT 10SM CLR M03/M07 A2999 RMK AO2 SLP159 T10281067
                 400671039 =
2017-11-17 22:52 METAR KFIT 180352Z AUTO 00000KT 10SM CLR M01/M08 A2998 RMK AO2 SLP157 T10061078
                 =

Support USWX by starting your Amazon purchase here.